Alexandria, Alabama
Current Conditions -  °F | °C
As of 2:53 AM on Saturday 01 Nov 2014 (Local Time) from KANB Reporting Station
Clear Clear  
Wind Chill: 33°   Ceiling: Unl
Heat Index: 39°   Visibility: 10mi
Dew Point: 24°   Wind: 9mph
Humidity: 55%   Direction: 290°WNW
Pressure: 30.07"   Gusts: 21mph
Location:  33.77°N, 85.89°W
Report Text: KANB 010753Z AUTO 29008G18KT 10SM CLR 04/M04 A3007 RMK AO2 SLP188 T00391044 $
Loading
Personal Weather Stations






























Interactive Weather Map
Tropical Storm Tracking
New forecast layout! Learn more

10-Day Weather Forecast

Advertisements
Track Severe Weather on mobile